Time;durP1;ratioP1;P1;durP2;ratioP2;P2;SDS_P1;SDS_P2;PMS_P1;PMS_P2;Temp;Humidity;BMP_temperature;BMP_pressure;BME280_temperature;BME280_humidity;BME280_pressure;Samples;Min_cycle;Max_cycle;Signal;HPM_P1;HPM_P2
2021/12/07 00:02:01;;;;;;;;;0.00;0.00;;;;;7.54;73.33;100663.28;4990388;28;46248;-62
2021/12/07 00:04:27;;;;;;;;;1.00;1.00;;;;;7.60;72.78;100676.28;4989764;27;45386;-65
2021/12/07 00:06:52;;;;;;;;;5.00;1.00;;;;;7.60;72.92;100700.09;5015390;28;45416;-62
2021/12/07 00:09:18;;;;;;;;;2.00;1.00;;;;;7.42;72.70;100677.03;4984243;28;45364;-64
2021/12/07 00:11:48;;;;;;;;;3.50;0.75;;;;;7.58;73.02;100686.06;4976047;28;46484;-67
2021/12/07 00:14:21;;;;;;;;;1.50;1.50;;;;;7.57;72.40;100683.50;4989366;27;45451;-64
2021/12/07 00:16:47;;;;;;;;;2.00;2.00;;;;;7.58;72.41;100680.78;4975970;28;45432;-63
2021/12/07 00:19:13;;;;;;;;;1.75;1.75;;;;;7.51;72.75;100674.00;4987938;27;45231;-63
2021/12/07 00:21:41;;;;;;;;;3.00;1.00;;;;;7.58;72.29;100686.06;4992003;28;45513;-62
2021/12/07 00:24:08;;;;;;;;;6.00;2.00;;;;;7.55;72.71;100680.91;4992839;27;45429;-67
2021/12/07 00:26:34;;;;;;;;;2.00;2.00;;;;;7.59;72.22;100669.25;4993882;28;45938;-63
2021/12/07 00:29:02;;;;;;;;;2.00;0.25;;;;;7.55;72.44;100669.44;4994414;27;45330;-65
2021/12/07 00:31:34;;;;;;;;;1.25;1.25;;;;;7.53;72.24;100676.59;4994083;28;46236;-64
2021/12/07 00:36:36;;;;;;;;;2.50;1.00;;;;;7.49;72.13;100686.44;4993340;28;45300;-63
2021/12/07 00:39:06;;;;;;;;;2.50;1.00;;;;;7.48;72.05;100676.78;4972509;28;45498;-63
2021/12/07 00:41:32;;;;;;;;;1.00;1.00;;;;;7.49;71.68;100681.16;5050430;27;46253;-64
2021/12/07 00:43:58;;;;;;;;;4.75;2.00;;;;;7.49;72.04;100683.81;5060265;28;45532;-64
2021/12/07 00:46:25;;;;;;;;;2.75;1.25;;;;;7.61;71.76;100700.97;4975869;28;45373;-62
2021/12/07 00:48:51;;;;;;;;;1.00;1.00;;;;;7.62;71.62;100700.88;4992410;28;45691;-64
2021/12/07 00:51:17;;;;;;;;;1.50;1.50;;;;;7.53;71.89;100687.16;4982984;27;45937;-65
2021/12/07 00:53:42;;;;;;;;;0.00;0.00;;;;;7.66;71.41;100697.19;4977935;28;45333;-62
2021/12/07 00:56:08;;;;;;;;;3.00;1.00;;;;;7.65;71.73;100697.25;4976245;28;45386;-64
2021/12/07 00:58:34;;;;;;;;;0.25;0.25;;;;;7.66;70.99;100702.47;4990614;28;45480;-63
2021/12/07 01:01:07;;;;;;;;;2.00;0.00;;;;;7.64;71.34;100690.22;4973895;28;46716;-64
2021/12/07 01:03:33;;;;;;;;;3.25;1.00;;;;;7.63;70.87;100707.91;4993453;28;45549;-65
2021/12/07 01:06:14;;;;;;;;;4.25;0.75;;;;;7.58;70.16;100699.31;4993319;27;45326;-64
2021/12/07 01:25:11;;;;;;;;;1.00;0.00;;;;;7.54;69.16;100694.19;4988063;28;45244;-64
2021/12/07 01:27:44;;;;;;;;;0.75;0.00;;;;;7.45;69.36;100676.06;4992352;27;45445;-64
2021/12/07 01:30:21;;;;;;;;;0.25;0.25;;;;;7.38;69.07;100678.94;4993682;28;45482;-65
2021/12/07 01:35:50;;;;;;;;;0.00;0.00;;;;;7.30;69.50;100674.91;4988979;28;45247;-64
2021/12/07 01:51:37;;;;;;;;;2.00;0.00;;;;;7.31;69.88;100706.59;4992592;28;45441;-64
2021/12/07 01:59:34;;;;;;;;;0.00;0.00;;;;;7.28;69.54;100703.19;4986132;27;45263;-64
2021/12/07 02:02:03;;;;;;;;;0.00;0.00;;;;;7.23;70.21;100702.53;4993054;28;45311;-64
2021/12/07 02:04:29;;;;;;;;;0.00;0.00;;;;;7.23;70.33;100710.47;4989222;28;46673;-65
2021/12/07 02:06:54;;;;;;;;;0.00;0.00;;;;;7.21;70.42;100713.19;4992565;27;45300;-65
2021/12/07 02:09:20;;;;;;;;;0.00;0.00;;;;;7.18;70.13;100712.44;4971886;28;45637;-63
2021/12/07 02:11:50;;;;;;;;;0.50;0.00;;;;;7.13;70.66;100704.69;4991826;28;45381;-65
2021/12/07 02:14:18;;;;;;;;;3.25;1.50;;;;;7.16;69.93;100698.41;4991743;28;45485;-65
2021/12/07 02:16:49;;;;;;;;;1.00;1.00;;;;;7.18;69.82;100704.50;4984332;27;45410;-64
2021/12/07 02:19:15;;;;;;;;;2.00;0.00;;;;;7.20;69.90;100703.53;4991942;28;45390;-66
2021/12/07 02:21:41;;;;;;;;;1.25;0.75;;;;;7.16;70.10;100701.03;4992125;27;45251;-63
2021/12/07 02:24:07;;;;;;;;;0.00;0.00;;;;;7.07;69.91;100695.22;4984994;27;45441;-64
2021/12/07 02:26:32;;;;;;;;;1.00;1.00;;;;;7.18;70.09;100728.31;4973278;28;45329;-63
2021/12/07 02:28:58;;;;;;;;;0.00;0.00;;;;;7.13;69.26;100735.56;4989187;28;45174;-64
2021/12/07 02:31:25;;;;;;;;;0.00;0.00;;;;;7.12;69.86;100723.25;4991858;27;45239;-66
2021/12/07 02:33:51;;;;;;;;;0.00;0.00;;;;;7.09;69.42;100722.47;4965995;28;47057;-64
2021/12/07 02:36:16;;;;;;;;;0.00;0.00;;;;;7.04;69.70;100715.63;4956773;28;45449;-66
2021/12/07 02:38:42;;;;;;;;;2.50;0.25;;;;;7.08;69.77;100715.44;4972676;28;45476;-65
2021/12/07 02:41:09;;;;;;;;;0.75;0.75;;;;;7.10;69.69;100723.31;4966686;28;45357;-64
2021/12/07 02:43:36;;;;;;;;;0.00;0.00;;;;;7.00;69.17;100712.22;4983037;28;46200;-64
2021/12/07 02:46:02;;;;;;;;;1.25;1.00;;;;;6.95;69.40;100705.41;4977870;28;45260;-64
2021/12/07 02:48:28;;;;;;;;;0.00;0.00;;;;;7.01;69.64;100711.31;4977961;28;45223;-64
2021/12/07 02:50:54;;;;;;;;;0.00;0.00;;;;;7.02;69.77;100723.59;4992254;27;45466;-62
2021/12/07 02:53:26;;;;;;;;;0.00;0.00;;;;;7.01;69.90;100727.19;4976692;28;47461;-66
2021/12/07 02:55:53;;;;;;;;;2.00;0.00;;;;;6.97;69.57;100724.72;4995251;28;45340;-64
2021/12/07 02:58:19;;;;;;;;;0.00;0.00;;;;;6.93;69.55;100726.63;4994677;27;45437;-64
2021/12/07 03:00:53;;;;;;;;;0.00;0.00;;;;;6.89;70.33;100717.06;4994778;27;45243;-63
2021/12/07 03:03:19;;;;;;;;;0.25;0.00;;;;;6.91;70.23;100731.13;4994561;28;46197;-62
2021/12/07 03:27:31;;;;;;;;;1.50;1.00;;;;;6.74;72.52;100741.47;4973769;28;45470;-64
2021/12/07 03:29:57;;;;;;;;;5.50;2.00;;;;;6.72;72.36;100745.94;4993236;28;45572;-65
2021/12/07 03:32:22;;;;;;;;;1.00;1.00;;;;;6.76;72.84;100758.97;4995011;28;45450;-62
2021/12/07 03:34:48;;;;;;;;;2.00;1.00;;;;;6.68;72.29;100739.94;4976411;28;45445;-63
2021/12/07 03:37:13;;;;;;;;;2.50;1.00;;;;;6.78;71.90;100766.88;4988569;27;45319;-65
2021/12/07 03:39:39;;;;;;;;;1.50;1.50;;;;;6.68;72.51;100750.50;4999396;27;45335;-64
2021/12/07 03:42:05;;;;;;;;;2.00;0.25;;;;;6.79;72.63;100758.88;4995750;27;45326;-64
2021/12/07 03:44:30;;;;;;;;;1.00;1.00;;;;;6.82;72.41;100741.19;4977289;27;46282;-65
2021/12/07 03:46:56;;;;;;;;;5.00;0.00;;;;;6.82;72.29;100733.25;4986975;28;45326;-63
2021/12/07 03:49:22;;;;;;;;;2.00;1.00;;;;;6.82;72.55;100747.34;4994441;28;45431;-65
2021/12/07 03:51:47;;;;;;;;;2.00;0.00;;;;;6.75;72.14;100749.31;4991327;27;45566;-62
2021/12/07 03:54:12;;;;;;;;;0.00;0.00;;;;;6.76;71.72;100764.25;4992469;28;45405;-62
2021/12/07 03:56:38;;;;;;;;;0.50;0.50;;;;;6.77;72.66;100749.25;4994510;28;45325;-65
2021/12/07 03:59:04;;;;;;;;;0.50;0.50;;;;;6.75;71.78;100735.25;4988886;27;45491;-63
2021/12/07 04:01:29;;;;;;;;;1.50;1.50;;;;;6.82;72.40;100735.91;4976747;28;45699;-65
2021/12/07 04:03:55;;;;;;;;;1.00;1.00;;;;;6.80;71.89;100738.59;4984471;27;45312;-64
2021/12/07 04:06:21;;;;;;;;;2.00;1.00;;;;;6.75;71.85;100730.81;4994306;28;45889;-64
2021/12/07 04:08:47;;;;;;;;;0.00;0.00;;;;;6.76;72.13;100737.84;4993892;27;45358;-63
2021/12/07 04:11:14;;;;;;;;;1.00;1.00;;;;;6.72;71.76;100725.66;4994337;27;45702;-64
2021/12/07 04:13:44;;;;;;;;;0.00;0.00;;;;;6.70;72.22;100726.66;4977111;28;48455;-64
2021/12/07 04:16:11;;;;;;;;;1.00;1.00;;;;;6.70;72.24;100737.22;4994495;27;45495;-64
2021/12/07 04:18:37;;;;;;;;;0.75;0.75;;;;;6.68;71.87;100749.63;4965117;27;45292;-63
2021/12/07 04:21:03;;;;;;;;;0.00;0.00;;;;;6.63;71.98;100741.00;4991269;28;45526;-63
2021/12/07 04:23:31;;;;;;;;;3.50;0.00;;;;;6.57;71.83;100750.03;4981699;28;47893;-64
2021/12/07 04:25:57;;;;;;;;;1.50;1.00;;;;;6.51;72.39;100731.78;4975966;28;45374;-63
2021/12/07 04:28:23;;;;;;;;;0.00;0.00;;;;;6.58;71.64;100737.69;4993599;28;45565;-64
2021/12/07 04:30:48;;;;;;;;;2.00;0.00;;;;;6.60;72.60;100738.47;4994001;27;45320;-66
2021/12/07 04:33:14;;;;;;;;;0.75;0.75;;;;;6.63;71.87;100735.72;4983150;27;45447;-62
2021/12/07 04:35:49;;;;;;;;;0.75;0.75;;;;;6.61;71.79;100738.41;4994131;28;45426;-65
2021/12/07 04:38:15;;;;;;;;;2.50;0.50;;;;;6.60;71.55;100735.84;4993872;28;45306;-62
2021/12/07 04:40:41;;;;;;;;;1.75;0.00;;;;;6.45;72.71;100714.34;5022696;27;45697;-63
2021/12/07 04:43:08;;;;;;;;;0.00;0.00;;;;;6.58;72.16;100738.53;4975733;27;45382;-64
2021/12/07 04:59:11;;;;;;;;;1.00;1.00;;;;;6.48;72.32;100732.72;4989974;27;45299;-63
2021/12/07 05:01:37;;;;;;;;;1.00;1.00;;;;;6.47;72.26;100741.56;4989907;27;45643;-63
2021/12/07 05:06:40;;;;;;;;;0.00;0.00;;;;;6.49;71.99;100734.44;4987592;28;45514;-62
2021/12/07 05:09:23;;;;;;;;;0.50;0.00;;;;;6.41;71.77;100718.03;4988682;28;45538;-62
2021/12/07 05:24:24;;;;;;;;;0.25;0.25;;;;;6.31;72.48;100727.22;4992558;28;45461;-62
2021/12/07 05:40:16;;;;;;;;;3.00;1.00;;;;;6.30;72.56;100748.41;4992343;28;45300;-62
2021/12/07 05:42:41;;;;;;;;;1.75;1.75;;;;;6.34;72.48;100750.88;4992713;28;45599;-64
2021/12/07 05:45:11;;;;;;;;;2.00;0.25;;;;;6.34;72.82;100748.22;4966217;28;45232;-62
2021/12/07 05:47:37;;;;;;;;;3.50;3.50;;;;;6.27;72.52;100730.88;4989729;28;45428;-63
2021/12/07 05:50:04;;;;;;;;;1.00;1.00;;;;;6.21;72.96;100723.16;4992166;28;45486;-62
2021/12/07 05:52:30;;;;;;;;;1.75;1.25;;;;;6.28;72.56;100739.66;4993016;28;45634;-63
2021/12/07 05:54:55;;;;;;;;;5.00;2.00;;;;;6.26;73.25;100734.44;4992787;28;45354;-63
2021/12/07 05:57:21;;;;;;;;;1.25;1.00;;;;;6.30;73.29;100749.25;4991673;28;45476;-63
2021/12/07 05:59:46;;;;;;;;;5.25;2.75;;;;;6.27;72.27;100749.38;4993031;28;45246;-61
2021/12/07 06:02:12;;;;;;;;;4.00;4.00;;;;;6.28;73.03;100745.81;4992151;28;45476;-62
2021/12/07 06:04:37;;;;;;;;;4.75;2.00;;;;;6.31;72.83;100761.53;4992325;28;46026;-63
2021/12/07 06:07:04;;;;;;;;;2.00;2.00;;;;;6.33;72.34;100761.47;4993281;28;45443;-59
2021/12/07 06:09:30;;;;;;;;;8.75;5.50;;;;;6.31;72.92;100760.69;4992027;28;45536;-62
2021/12/07 06:11:55;;;;;;;;;4.75;2.00;;;;;6.27;72.67;100754.66;4973095;28;45574;-62
2021/12/07 06:14:28;;;;;;;;;6.50;2.00;;;;;6.28;73.05;100753.75;4991751;28;45941;-61
2021/12/07 06:16:54;;;;;;;;;9.50;4.75;;;;;6.24;72.83;100738.91;4992524;28;45226;-65
2021/12/07 06:19:19;;;;;;;;;4.00;4.00;;;;;6.24;73.17;100744.19;4993421;28;45250;-63
2021/12/07 06:21:45;;;;;;;;;4.00;4.00;;;;;6.20;72.94;100718.81;4983457;28;45603;-62
2021/12/07 06:24:10;;;;;;;;;4.25;4.00;;;;;6.19;72.69;100712.66;4993863;28;46113;-61
2021/12/07 06:26:36;;;;;;;;;4.25;4.25;;;;;6.22;73.31;100706.41;5038289;28;45284;-65
2021/12/07 06:29:02;;;;;;;;;4.00;4.00;;;;;6.29;72.91;100707.91;4980202;28;45484;-62
2021/12/07 06:31:27;;;;;;;;;5.00;5.00;;;;;6.28;72.42;100703.56;4995487;28;45837;-64
2021/12/07 06:33:53;;;;;;;;;5.00;5.00;;;;;6.27;72.60;100703.63;4994904;28;45442;-60
2021/12/07 06:36:18;;;;;;;;;4.75;3.00;;;;;6.19;73.20;100686.25;4994591;28;45323;-62
2021/12/07 06:38:45;;;;;;;;;9.00;4.00;;;;;6.14;73.42;100668.88;4995350;28;45381;-62
2021/12/07 06:41:10;;;;;;;;;7.50;5.00;;;;;6.24;72.69;100686.06;5021910;28;45603;-63
2021/12/07 06:43:37;;;;;;;;;4.25;4.25;;;;;6.24;72.77;100683.44;5036086;28;46242;-60
2021/12/07 06:46:02;;;;;;;;;6.50;6.50;;;;;6.23;72.49;100689.63;4993957;28;45308;-63
2021/12/07 06:48:28;;;;;;;;;8.00;5.00;;;;;6.28;72.41;100694.78;4994139;28;45482;-62
2021/12/07 06:50:54;;;;;;;;;5.75;4.00;;;;;6.27;72.78;100699.19;4994438;28;45236;-63
2021/12/07 06:53:19;;;;;;;;;9.00;5.00;;;;;6.24;72.61;100691.34;4993704;28;45892;-63
2021/12/07 06:55:45;;;;;;;;;6.50;4.00;;;;;6.25;72.58;100677.25;4995240;28;46816;-62
2021/12/07 06:58:10;;;;;;;;;8.00;5.00;;;;;6.22;73.07;100653.59;4995070;28;45371;-61
2021/12/07 07:00:37;;;;;;;;;9.75;7.50;;;;;6.29;72.67;100673.59;4994197;28;45658;-63
2021/12/07 07:03:03;;;;;;;;;11.50;9.00;;;;;6.29;72.87;100663.03;4994403;28;45383;-66
2021/12/07 07:05:30;;;;;;;;;11.25;9.00;;;;;6.21;72.98;100646.59;4994839;28;45361;-64
2021/12/07 07:07:56;;;;;;;;;15.75;10.00;;;;;6.27;73.45;100653.44;4994869;28;45221;-66
2021/12/07 07:10:21;;;;;;;;;8.75;7.25;;;;;6.23;73.18;100652.66;4976398;28;45331;-63
2021/12/07 07:12:48;;;;;;;;;9.25;6.00;;;;;6.21;73.79;100644.81;4976590;28;46757;-67
2021/12/07 07:15:14;;;;;;;;;12.75;8.75;;;;;6.16;73.39;100641.47;4983888;28;45278;-62
2021/12/07 07:17:40;;;;;;;;;11.50;9.00;;;;;6.13;73.26;100641.59;4991451;28;45529;-65
2021/12/07 07:20:09;;;;;;;;;13.00;12.00;;;;;6.14;73.98;100642.47;4973304;28;45612;-65
2021/12/07 07:22:35;;;;;;;;;12.25;10.25;;;;;6.05;73.81;100627.81;4993872;28;45596;-65
2021/12/07 07:25:01;;;;;;;;;9.00;9.00;;;;;6.07;74.03;100630.38;4976846;28;45445;-67
2021/12/07 07:27:27;;;;;;;;;11.00;10.50;;;;;6.07;73.85;100640.94;4994540;28;45267;-64
2021/12/07 07:29:52;;;;;;;;;8.25;7.75;;;;;6.01;73.41;100626.22;4994150;28;45265;-65
2021/12/07 07:32:18;;;;;;;;;5.50;3.50;;;;;6.01;74.39;100620.94;4979511;28;46283;-64
2021/12/07 07:34:44;;;;;;;;;12.00;9.50;;;;;6.02;74.01;100616.50;5011412;28;45355;-64
2021/12/07 07:37:09;;;;;;;;;14.50;12.25;;;;;5.88;73.84;100596.72;4980332;28;45482;-63
2021/12/07 07:39:35;;;;;;;;;19.00;19.00;;;;;6.00;74.60;100613.06;4986146;28;45667;-64
2021/12/07 07:42:00;;;;;;;;;19.25;15.25;;;;;5.98;75.02;100599.03;4982671;28;45920;-63
2021/12/07 07:44:26;;;;;;;;;19.50;14.75;;;;;5.93;74.76;100593.09;4992676;28;45414;-64
2021/12/07 07:46:51;;;;;;;;;12.00;12.00;;;;;5.88;75.63;100583.53;5007915;28;45343;-66
2021/12/07 07:49:17;;;;;;;;;13.25;13.25;;;;;5.88;75.08;100588.81;5009564;28;45632;-64
2021/12/07 07:51:43;;;;;;;;;19.25;17.25;;;;;5.90;74.71;100587.00;4994031;28;46093;-64
2021/12/07 07:54:09;;;;;;;;;19.25;18.50;;;;;5.93;74.50;100586.03;4993740;28;45862;-68
2021/12/07 07:56:36;;;;;;;;;15.50;13.50;;;;;5.88;74.43;100583.53;4994065;28;45421;-66
2021/12/07 07:59:02;;;;;;;;;24.75;18.25;;;;;5.84;74.95;100576.63;4994428;28;45864;-67
2021/12/07 08:01:30;;;;;;;;;18.50;16.75;;;;;5.95;75.13;100583.31;4990245;28;46003;-65
2021/12/07 08:03:57;;;;;;;;;24.75;18.75;;;;;5.94;74.74;100571.03;4973847;28;45511;-65
2021/12/07 08:06:22;;;;;;;;;21.75;19.25;;;;;5.94;75.52;100569.25;4989707;28;45506;-65
2021/12/07 08:08:48;;;;;;;;;25.00;18.75;;;;;5.79;75.92;100546.91;4990895;28;45556;-64
2021/12/07 08:11:13;;;;;;;;;23.25;19.00;;;;;5.93;75.71;100577.25;4982065;28;47760;-65
2021/12/07 08:13:40;;;;;;;;;20.75;20.50;;;;;5.88;74.94;100559.78;4991812;28;46673;-64
2021/12/07 08:16:06;;;;;;;;;28.75;18.25;;;;;5.87;74.72;100544.88;4975904;28;45288;-63
2021/12/07 08:18:32;;;;;;;;;22.75;17.50;;;;;5.94;75.33;100555.22;4962378;28;45308;-67
2021/12/07 08:20:57;;;;;;;;;21.50;17.50;;;;;5.91;75.47;100549.13;4992894;28;46595;-66
2021/12/07 08:23:23;;;;;;;;;21.75;19.00;;;;;5.88;75.31;100551.00;4994396;28;45505;-64
2021/12/07 08:25:49;;;;;;;;;27.00;23.75;;;;;5.93;75.01;100553.50;4973642;28;45547;-66
2021/12/07 08:28:19;;;;;;;;;17.50;17.50;;;;;5.86;75.01;100531.72;4974954;28;45607;-63
2021/12/07 08:30:47;;;;;;;;;18.25;16.75;;;;;5.94;74.87;100545.50;4991679;28;46183;-67
2021/12/07 08:33:12;;;;;;;;;21.50;18.00;;;;;5.90;74.52;100526.28;4994016;28;45444;-65
2021/12/07 08:35:39;;;;;;;;;25.00;15.00;;;;;5.90;74.90;100523.66;4964717;28;45717;-67
2021/12/07 08:38:05;;;;;;;;;27.75;22.00;;;;;5.95;74.76;100526.13;4965705;28;45570;-64
2021/12/07 08:40:34;;;;;;;;;21.75;19.25;;;;;6.01;74.15;100535.59;4965529;28;46119;-65
2021/12/07 08:43:00;;;;;;;;;26.75;21.50;;;;;6.08;75.29;100532.66;4975545;28;45318;-68
2021/12/07 08:45:30;;;;;;;;;22.00;19.50;;;;;6.05;74.17;100518.72;4976028;28;45368;-67
2021/12/07 08:47:58;;;;;;;;;26.25;19.00;;;;;5.98;74.56;100517.22;4975426;28;45537;-64
2021/12/07 08:50:27;;;;;;;;;23.25;20.50;;;;;6.11;74.62;100529.03;4956878;28;45715;-69
2021/12/07 08:52:54;;;;;;;;;32.75;21.00;;;;;6.13;74.39;100535.13;4974571;28;45373;-66
2021/12/07 09:00:52;;;;;;;;;23.25;15.75;;;;;6.04;74.31;100482.66;4983370;28;45535;-66
2021/12/07 09:03:19;;;;;;;;;19.00;18.00;;;;;5.99;74.96;100487.25;4976392;28;45511;-65
2021/12/07 09:05:45;;;;;;;;;20.50;16.25;;;;;5.85;75.28;100488.59;4979281;28;45507;-65
2021/12/07 09:08:10;;;;;;;;;22.50;18.75;;;;;5.81;75.72;100457.13;4975975;28;45547;-65
2021/12/07 09:10:36;;;;;;;;;17.00;17.00;;;;;5.68;75.49;100427.72;4989639;28;45444;-65
2021/12/07 09:13:01;;;;;;;;;20.00;18.50;;;;;5.81;74.95;100443.94;4993588;28;45187;-66
2021/12/07 09:15:27;;;;;;;;;21.75;18.50;;;;;5.72;76.13;100437.22;4978230;28;45270;-66
2021/12/07 09:17:52;;;;;;;;;24.00;17.50;;;;;5.80;75.64;100436.94;4974611;28;45475;-63
2021/12/07 09:20:18;;;;;;;;;32.50;22.50;;;;;5.88;76.64;100442.78;4986150;28;45342;-62
2021/12/07 09:22:45;;;;;;;;;23.50;18.75;;;;;5.91;76.26;100446.19;4974587;28;45409;-66
2021/12/07 09:25:11;;;;;;;;;18.50;18.00;;;;;5.88;75.69;100424.31;4993385;28;45810;-66
2021/12/07 09:27:36;;;;;;;;;22.25;19.25;;;;;5.87;76.37;100412.91;4959417;28;45319;-64
2021/12/07 09:30:03;;;;;;;;;28.50;23.50;;;;;5.91;75.25;100408.38;4993025;28;46003;-65
2021/12/07 09:32:29;;;;;;;;;14.25;12.75;;;;;5.86;76.24;100421.75;4975453;28;45417;-63
2021/12/07 09:34:55;;;;;;;;;15.50;14.50;;;;;5.94;75.10;100417.94;4993726;28;45829;-64
2021/12/07 09:37:21;;;;;;;;;15.50;13.25;;;;;5.88;75.27;100419.91;4992214;28;45389;-63
2021/12/07 09:39:47;;;;;;;;;15.75;14.25;;;;;5.85;75.30;100425.25;4991885;28;45337;-64
2021/12/07 09:42:12;;;;;;;;;23.00;16.00;;;;;5.78;75.85;100436.16;4975601;28;45379;-66
2021/12/07 09:44:38;;;;;;;;;22.00;17.00;;;;;5.82;75.67;100435.09;4993422;28;45168;-64
2021/12/07 09:47:03;;;;;;;;;19.00;15.00;;;;;5.77;76.06;100435.28;4993358;28;45251;-65
2021/12/07 09:49:29;;;;;;;;;19.50;19.50;;;;;5.77;76.25;100430.00;4993239;28;45295;-66
2021/12/07 09:51:55;;;;;;;;;17.25;12.00;;;;;5.76;76.70;100425.66;4992075;28;45873;-66
2021/12/07 09:54:21;;;;;;;;;20.50;19.25;;;;;5.76;76.21;100422.16;4996216;28;45363;-65
2021/12/07 09:56:46;;;;;;;;;14.25;11.00;;;;;5.75;75.15;100423.94;4996568;28;45482;-63
2021/12/07 09:59:12;;;;;;;;;11.75;11.75;;;;;5.78;76.60;100413.25;4996012;28;45400;-65
2021/12/07 10:01:40;;;;;;;;;20.50;14.75;;;;;5.70;75.17;100399.47;4996209;28;45846;-66
2021/12/07 10:04:05;;;;;;;;;16.00;13.25;;;;;5.77;76.10;100416.81;4978578;28;45513;-65
2021/12/07 10:06:31;;;;;;;;;15.75;13.00;;;;;5.79;75.55;100424.66;4978411;28;45185;-66
2021/12/07 10:08:57;;;;;;;;;11.25;11.25;;;;;5.75;77.07;100423.06;4996156;28;46355;-66
2021/12/07 10:11:23;;;;;;;;;16.75;15.50;;;;;5.76;75.91;100415.09;4996112;28;45464;-65
2021/12/07 10:13:51;;;;;;;;;16.00;14.50;;;;;5.74;76.35;100406.38;4995883;28;45440;-67
2021/12/07 10:16:19;;;;;;;;;14.50;11.75;;;;;5.77;76.24;100390.44;4994941;28;45504;-64
2021/12/07 10:18:45;;;;;;;;;14.75;13.25;;;;;5.81;76.86;100378.81;4962196;28;47262;-65
2021/12/07 10:21:26;;;;;;;;;16.50;16.50;;;;;5.88;77.28;100368.88;4978287;28;45400;-66
2021/12/07 10:23:56;;;;;;;;;16.25;15.50;;;;;5.97;77.54;100370.31;4996032;28;45428;-67
2021/12/07 10:26:28;;;;;;;;;16.25;15.25;;;;;5.95;76.93;100353.69;4978539;28;45930;-66
2021/12/07 10:29:20;;;;;;;;;16.50;16.50;;;;;5.95;77.72;100345.75;4995471;28;45373;-65
2021/12/07 10:31:52;;;;;;;;;17.25;14.50;;;;;6.01;77.55;100330.56;4996377;28;45441;-67
2021/12/07 10:34:24;;;;;;;;;18.50;11.75;;;;;6.03;77.75;100338.41;4978038;28;45309;-66
2021/12/07 10:36:56;;;;;;;;;21.75;18.25;;;;;6.00;76.55;100317.41;4995467;28;45448;-65
2021/12/07 10:39:25;;;;;;;;;16.25;16.25;;;;;5.94;77.30;100294.75;4995547;28;45378;-66
2021/12/07 10:41:53;;;;;;;;;17.25;15.25;;;;;6.05;77.04;100283.75;4995436;28;45403;-66
2021/12/07 10:44:28;;;;;;;;;15.75;12.00;;;;;6.09;77.32;100280.06;4995995;28;45238;-66
2021/12/07 10:46:58;;;;;;;;;11.00;11.00;;;;;6.16;77.34;100277.09;4995816;28;45321;-68
2021/12/07 10:49:35;;;;;;;;;14.00;12.25;;;;;6.18;77.27;100269.97;4995606;28;45356;-66
2021/12/07 10:52:13;;;;;;;;;15.50;15.50;;;;;6.21;77.94;100263.69;4995925;28;45372;-67
2021/12/07 10:54:48;;;;;;;;;12.25;7.75;;;;;6.28;76.92;100248.44;4995588;28;45321;-68
2021/12/07 10:57:18;;;;;;;;;18.75;15.75;;;;;6.31;77.43;100241.25;4977815;28;45639;-66
2021/12/07 10:59:58;;;;;;;;;18.75;16.00;;;;;6.34;78.13;100219.97;4994836;28;46187;-66
2021/12/07 11:02:31;;;;;;;;;16.00;12.00;;;;;6.35;77.34;100212.91;4995151;28;45389;-69
2021/12/07 11:04:57;;;;;;;;;22.25;15.75;;;;;6.37;77.38;100206.63;4994540;28;45356;-64
2021/12/07 11:07:29;;;;;;;;;15.75;12.75;;;;;6.43;77.39;100206.34;4995345;28;45249;-65
2021/12/07 11:10:09;;;;;;;;;16.50;13.00;;;;;6.48;77.20;100192.94;4994843;28;46288;-64
2021/12/07 11:12:46;;;;;;;;;15.50;13.25;;;;;6.58;77.84;100182.81;4995034;28;45292;-66
2021/12/07 11:15:18;;;;;;;;;17.00;16.00;;;;;6.52;77.24;100151.41;4975746;28;45365;-66
2021/12/07 11:17:44;;;;;;;;;19.00;16.75;;;;;6.62;77.74;100152.66;4975335;28;45346;-63
2021/12/07 11:20:11;;;;;;;;;15.00;12.25;;;;;6.67;77.21;100135.69;4975422;28;45335;-65
2021/12/07 11:22:48;;;;;;;;;19.25;13.25;;;;;6.72;76.55;100119.59;4957984;28;45475;-67
2021/12/07 11:25:32;;;;;;;;;17.75;15.75;;;;;6.79;76.93;100107.81;4958202;28;45391;-64
2021/12/07 11:30:52;;;;;;;;;13.25;13.00;;;;;6.83;76.47;100082.94;4993216;28;46071;-66
2021/12/07 11:33:23;;;;;;;;;11.50;11.50;;;;;6.93;76.51;100084.22;4975351;28;45477;-63
2021/12/07 11:35:49;;;;;;;;;12.00;10.00;;;;;6.96;76.01;100084.06;4975867;28;45311;-66
2021/12/07 11:38:27;;;;;;;;;16.75;12.25;;;;;7.02;76.46;100073.16;4958729;28;45197;-65
2021/12/07 11:40:52;;;;;;;;;12.75;12.75;;;;;7.05;75.59;100065.09;4975416;28;45677;-64
2021/12/07 11:43:19;;;;;;;;;14.75;12.00;;;;;7.07;75.81;100055.28;4974928;28;45394;-66
2021/12/07 11:45:45;;;;;;;;;18.00;9.00;;;;;7.13;75.73;100047.97;4957943;28;45347;-65
2021/12/07 11:48:12;;;;;;;;;14.00;11.50;;;;;7.17;75.46;100034.53;4975613;28;45421;-65
2021/12/07 11:50:44;;;;;;;;;13.50;8.75;;;;;7.19;74.75;100034.47;4975067;28;46266;-65
2021/12/07 11:53:18;;;;;;;;;8.00;8.00;;;;;7.27;75.30;100026.97;4975237;28;45373;-66
2021/12/07 11:55:47;;;;;;;;;10.25;8.50;;;;;7.30;75.15;100018.91;4974756;28;45515;-67
2021/12/07 11:58:14;;;;;;;;;10.50;10.50;;;;;7.26;74.46;100004.97;4957747;28;45293;-66
2021/12/07 12:00:47;;;;;;;;;11.75;11.75;;;;;7.30;74.50;99993.31;4975161;28;45441;-65
2021/12/07 12:03:16;;;;;;;;;9.25;8.50;;;;;7.33;74.40;99979.06;4975223;28;45216;-64
2021/12/07 12:05:44;;;;;;;;;10.25;8.25;;;;;7.38;74.80;99967.28;4975159;28;45355;-68
2021/12/07 12:08:13;;;;;;;;;12.75;10.00;;;;;7.47;74.36;99968.59;4974910;28;45390;-64
2021/12/07 12:10:42;;;;;;;;;13.00;9.00;;;;;7.42;74.48;99944.16;4975008;28;46122;-65
2021/12/07 12:13:34;;;;;;;;;8.50;8.50;;;;;7.52;74.49;99955.13;4978223;28;45454;-68
2021/12/07 12:16:25;;;;;;;;;15.25;10.75;;;;;7.48;74.38;99938.56;4986860;28;45313;-68
2021/12/07 12:19:15;;;;;;;;;10.00;8.75;;;;;7.56;74.41;99936.38;4976839;28;45297;-65
2021/12/07 12:21:49;;;;;;;;;16.00;10.00;;;;;7.55;74.05;99917.91;4994605;28;45698;-69
2021/12/07 12:24:30;;;;;;;;;9.00;7.50;;;;;7.59;73.88;99920.31;4994631;28;45197;-67
2021/12/07 12:27:11;;;;;;;;;10.00;10.00;;;;;7.60;74.09;99924.66;4994457;28;45347;-67
2021/12/07 12:29:38;;;;;;;;;9.75;9.75;;;;;7.63;74.12;99903.31;4994676;28;45562;-67
2021/12/07 12:32:04;;;;;;;;;9.50;9.50;;;;;7.64;74.06;99883.84;4994788;28;46121;-66
2021/12/07 12:34:36;;;;;;;;;14.75;12.25;;;;;7.67;74.85;99885.47;4994239;28;45426;-67
2021/12/07 12:37:06;;;;;;;;;10.25;8.75;;;;;7.66;74.19;99866.09;4977210;28;45437;-66
2021/12/07 12:39:48;;;;;;;;;12.00;9.50;;;;;7.67;73.82;99845.78;4976539;28;45608;-66
2021/12/07 12:42:27;;;;;;;;;15.75;9.00;;;;;7.71;74.16;99830.59;4993901;28;46132;-67
2021/12/07 12:45:20;;;;;;;;;8.75;8.75;;;;;7.75;73.60;99834.78;4994165;28;45357;-65
2021/12/07 12:48:06;;;;;;;;;8.50;8.25;;;;;7.67;73.89;99812.22;4976437;28;45420;-66
2021/12/07 12:50:44;;;;;;;;;4.50;4.00;;;;;7.75;73.73;99819.75;4994415;28;45282;-66
2021/12/07 12:53:15;;;;;;;;;8.00;8.00;;;;;7.76;73.81;99786.19;4993884;28;45250;-64
2021/12/07 12:56:00;;;;;;;;;6.00;6.00;;;;;7.81;73.28;99786.75;4993635;28;45490;-67
2021/12/07 12:58:29;;;;;;;;;8.50;8.25;;;;;7.83;73.37;99769.03;4997602;28;45436;-67
2021/12/07 13:01:21;;;;;;;;;10.00;8.75;;;;;7.79;73.03;99763.03;4994511;28;45230;-67
2021/12/07 13:03:51;;;;;;;;;11.25;7.25;;;;;7.83;73.10;99764.59;4994038;28;46354;-66
2021/12/07 13:06:21;;;;;;;;;9.25;8.00;;;;;7.85;72.94;99762.69;4993883;28;46037;-65
2021/12/07 13:08:55;;;;;;;;;6.00;5.00;;;;;7.86;72.98;99752.97;4993898;28;45422;-64
2021/12/07 13:11:49;;;;;;;;;6.00;6.00;;;;;7.89;72.86;99750.13;4994196;28;45502;-64
2021/12/07 13:14:24;;;;;;;;;5.75;5.75;;;;;7.84;72.97;99754.84;4982143;28;45544;-63
2021/12/07 13:16:52;;;;;;;;;5.25;5.25;;;;;7.88;72.65;99738.69;4973724;28;45337;-66
2021/12/07 13:19:19;;;;;;;;;8.25;5.75;;;;;7.86;72.56;99722.03;4974199;28;45342;-67
2021/12/07 13:21:46;;;;;;;;;8.00;5.00;;;;;7.93;72.28;99741.06;4974596;28;45491;-66
2021/12/07 13:24:32;;;;;;;;;9.50;8.00;;;;;7.95;72.78;99726.81;4974437;28;46186;-65
2021/12/07 13:26:58;;;;;;;;;9.25;5.25;;;;;7.96;72.09;99728.50;4973738;28;45921;-66